Terminal Aerodrome Forecast
Issued by NWS

Home | Current Version | Previous Version | Text Only | Print | Product List | Glossary On
Versions: 1 2 3 4 5 6 7 8 9 10 11 12 13 14 15 16
000
FTUS43 KEAX 241427 AAA
TAFSTJ
TAF AMD
KSTJ 241427Z 2414/2512 19014G22KT 6SM -TSRA BKN060CB
     FM241600 18011G21KT P6SM -SHRA VCTS OVC030CB
     FM250200 14006KT P6SM VCSH BKN015
     FM250400 36006KT 5SM -RA BKN008=

USA.gov is the U.S. government's official web portal to all federal, state and local government web resources and services.